createdAt,value
2017-11-24T00:01:22.092Z,5.70
2017-11-24T00:03:51.719Z,10.85
2017-11-24T00:06:18.642Z,9.35
2017-11-24T00:08:45.553Z,6.18
2017-11-24T00:11:12.474Z,9.13
2017-11-24T00:13:39.395Z,7.87
2017-11-24T00:16:06.326Z,8.95
2017-11-24T00:18:33.234Z,9.98
2017-11-24T00:21:00.151Z,15.80
2017-11-24T00:23:27.073Z,5.80
2017-11-24T00:25:53.985Z,15.80
2017-11-24T00:28:21.987Z,9.02
2017-11-24T00:30:48.911Z,9.02
2017-11-24T00:33:16.751Z,14.15
2017-11-24T00:35:43.690Z,11.25
2017-11-24T00:38:10.590Z,6.78
2017-11-24T00:40:37.510Z,21.25
2017-11-24T00:43:05.177Z,18.85
2017-11-24T00:45:32.862Z,8.43
2017-11-24T00:47:59.785Z,14.23
2017-11-24T00:50:26.718Z,11.18
2017-11-24T00:52:53.643Z,13.38
2017-11-24T00:55:20.584Z,16.92
2017-11-24T00:57:47.492Z,11.45
2017-11-24T01:00:14.393Z,7.80
2017-11-24T01:02:42.070Z,12.77
2017-11-24T01:05:09.024Z,6.22
2017-11-24T01:07:35.937Z,14.80
2017-11-24T01:10:03.651Z,12.37
2017-11-24T01:12:31.577Z,11.52
2017-11-24T01:14:59.258Z,14.00
2017-11-24T01:17:26.165Z,5.90
2017-11-24T01:19:54.044Z,6.75
2017-11-24T01:22:21.722Z,7.28
2017-11-24T01:24:48.662Z,5.00
2017-11-24T01:27:16.456Z,7.05
2017-11-24T01:29:43.382Z,10.13
2017-11-24T01:32:10.301Z,14.43
2017-11-24T01:34:38.009Z,9.18
2017-11-24T01:37:04.922Z,8.25
2017-11-24T01:39:31.850Z,6.07
2017-11-24T01:41:59.541Z,9.98
2017-11-24T01:44:26.459Z,9.23
2017-11-24T01:46:54.135Z,8.60
2017-11-24T01:49:22.043Z,10.98
2017-11-24T01:51:48.946Z,5.28
2017-11-24T01:54:15.878Z,10.40
2017-11-24T01:56:44.476Z,6.78
2017-11-24T01:59:11.399Z,8.80
2017-11-24T02:01:38.302Z,7.95
2017-11-24T02:04:05.239Z,10.63
2017-11-24T02:06:32.166Z,13.18
2017-11-24T02:08:59.093Z,7.85
2017-11-24T02:11:26.760Z,7.07
2017-11-24T02:13:55.635Z,14.02
2017-11-24T02:16:25.681Z,17.95
2017-11-24T02:18:52.596Z,7.95
2017-11-24T02:21:20.284Z,17.25
2017-11-24T02:23:47.197Z,17.25
2017-11-24T02:26:14.865Z,7.35
2017-11-24T02:28:42.549Z,14.05
2017-11-24T02:31:09.476Z,6.37
2017-11-24T02:33:37.170Z,7.72
2017-11-24T02:36:04.373Z,7.03
2017-11-24T02:38:32.056Z,15.02
2017-11-24T02:40:58.960Z,8.82
2017-11-24T02:43:25.885Z,8.32
2017-11-24T02:45:52.802Z,11.02
2017-11-24T02:48:19.736Z,11.77
2017-11-24T02:50:46.638Z,14.45
2017-11-24T02:53:13.570Z,8.95
2017-11-24T02:55:40.771Z,14.85
2017-11-24T02:58:07.690Z,14.07
2017-11-24T03:00:35.538Z,12.32
2017-11-24T03:03:02.443Z,9.88
2017-11-24T03:05:29.373Z,21.77
2017-11-24T03:07:56.277Z,12.43
2017-11-24T03:10:23.190Z,10.68
2017-11-24T03:12:51.509Z,8.50
2017-11-24T03:15:18.438Z,15.63
2017-11-24T03:17:45.347Z,13.40
2017-11-24T03:20:12.285Z,12.32
2017-11-24T03:22:39.189Z,11.57
2017-11-24T03:25:06.098Z,33.60
2017-11-24T03:27:36.593Z,10.32
2017-11-24T03:30:04.299Z,16.70
2017-11-24T03:32:31.229Z,10.23
2017-11-24T03:34:58.147Z,16.92
2017-11-24T03:37:25.078Z,11.80
2017-11-24T03:39:51.980Z,18.12
2017-11-24T03:42:18.906Z,11.65
2017-11-24T03:44:45.823Z,17.12
2017-11-24T03:47:12.739Z,10.38
2017-11-24T03:49:40.413Z,11.50
2017-11-24T03:52:07.349Z,14.02
2017-11-24T03:54:35.029Z,12.10
2017-11-24T03:57:01.955Z,11.10
2017-11-24T03:59:29.633Z,10.55
2017-11-24T04:01:56.562Z,13.75
2017-11-24T04:04:24.236Z,10.10
2017-11-24T04:06:51.190Z,9.50
2017-11-24T04:09:18.102Z,11.07
2017-11-24T04:11:45.793Z,8.40
2017-11-24T04:14:12.691Z,11.52
2017-11-24T04:16:39.623Z,19.08
2017-11-24T04:19:06.546Z,12.73
2017-11-24T04:21:33.454Z,8.25
2017-11-24T04:24:01.135Z,11.68
2017-11-24T04:26:28.049Z,10.63
2017-11-24T04:28:55.725Z,19.83
2017-11-24T04:31:23.427Z,21.23
2017-11-24T04:33:50.337Z,11.15
2017-11-24T04:36:17.285Z,14.23
2017-11-24T04:38:44.195Z,18.10
2017-11-24T04:41:11.127Z,9.52
2017-11-24T04:43:39.017Z,10.05
2017-11-24T04:46:06.738Z,18.40
2017-11-24T04:48:33.664Z,14.50
2017-11-24T04:51:00.596Z,14.73
2017-11-24T04:53:27.521Z,12.25
2017-11-24T04:55:56.219Z,17.48
2017-11-24T04:58:23.127Z,13.13
2017-11-24T05:00:50.075Z,13.88
2017-11-24T05:03:17.945Z,14.52
2017-11-24T05:05:45.643Z,17.12
2017-11-24T05:08:12.565Z,14.85
2017-11-24T05:10:40.282Z,13.07
2017-11-24T05:13:07.196Z,12.77
2017-11-24T05:15:34.132Z,18.55
2017-11-24T05:18:01.970Z,8.43
2017-11-24T05:20:28.911Z,13.52
2017-11-24T05:22:55.822Z,9.77
2017-11-24T05:25:22.750Z,16.27
2017-11-24T05:27:49.662Z,12.13
2017-11-24T05:30:16.645Z,17.50
2017-11-24T05:32:43.596Z,13.90
2017-11-24T05:35:10.514Z,11.80
2017-11-24T05:37:38.370Z,18.02
2017-11-24T05:40:05.292Z,17.60
2017-11-24T05:42:32.983Z,13.88
2017-11-24T05:44:59.939Z,11.55
2017-11-24T05:47:26.860Z,10.40
2017-11-24T05:49:53.784Z,11.45
2017-11-24T05:52:20.716Z,10.95
2017-11-24T05:54:47.634Z,10.85
2017-11-24T05:57:14.563Z,12.25
2017-11-24T05:59:41.475Z,13.05
2017-11-24T06:02:10.181Z,11.27
2017-11-24T06:04:37.084Z,16.30
2017-11-24T06:07:04.022Z,14.75
2017-11-24T06:09:30.947Z,12.20
2017-11-24T06:11:59.501Z,16.70
2017-11-24T06:14:26.409Z,17.12
2017-11-24T06:16:53.617Z,15.85
2017-11-24T06:19:20.537Z,15.77
2017-11-24T06:21:47.456Z,22.20
2017-11-24T06:24:15.138Z,15.80
2017-11-24T06:26:42.063Z,13.23
2017-11-24T06:29:09.756Z,12.15
2017-11-24T06:31:36.689Z,23.20
2017-11-24T06:34:03.646Z,13.35
2017-11-24T06:36:31.600Z,11.35
2017-11-24T06:39:00.594Z,15.05
2017-11-24T06:41:27.588Z,20.17
2017-11-24T06:43:55.540Z,12.65
2017-11-24T06:46:23.482Z,24.05
2017-11-24T06:48:50.413Z,8.40
2017-11-24T06:51:19.116Z,19.58
2017-11-24T06:53:46.046Z,10.32
2017-11-24T06:56:13.732Z,27.05
2017-11-24T06:58:40.647Z,17.75
2017-11-24T07:01:08.375Z,13.40
2017-11-24T07:03:36.279Z,16.12
2017-11-24T07:06:03.240Z,9.13
2017-11-24T07:08:30.162Z,17.85
2017-11-24T07:10:57.113Z,12.40
2017-11-24T07:13:25.798Z,9.82
2017-11-24T07:15:53.504Z,16.10
2017-11-24T07:18:21.181Z,21.95
2017-11-24T07:20:48.119Z,11.12
2017-11-24T07:23:15.020Z,14.40
2017-11-24T07:25:41.954Z,17.70
2017-11-24T07:28:08.882Z,23.52
2017-11-24T07:30:36.595Z,17.87
2017-11-24T07:33:03.510Z,16.70
2017-11-24T07:35:30.446Z,16.55
2017-11-24T07:37:58.153Z,11.30
2017-11-24T07:40:25.141Z,12.88
2017-11-24T07:42:53.839Z,13.25
2017-11-24T07:45:21.579Z,22.70
2017-11-24T07:47:48.514Z,15.55
2017-11-24T07:50:15.468Z,15.60
2017-11-24T07:52:42.399Z,17.55
2017-11-24T07:55:10.351Z,18.92
2017-11-24T07:57:37.268Z,20.90
2017-11-24T08:00:04.642Z,16.48
2017-11-24T08:02:31.582Z,17.48
2017-11-24T08:04:58.863Z,20.60
2017-11-24T08:07:26.096Z,26.77
2017-11-24T08:09:53.021Z,18.60
2017-11-24T08:12:19.936Z,19.92
2017-11-24T08:14:48.633Z,21.27
2017-11-24T08:17:16.318Z,17.10
2017-11-24T08:19:45.199Z,14.85
2017-11-24T08:22:12.125Z,12.75
2017-11-24T08:24:39.056Z,18.00
2017-11-24T08:27:06.781Z,23.75
2017-11-24T08:29:33.711Z,22.77
2017-11-24T08:32:00.626Z,15.32
2017-11-24T08:34:28.335Z,20.98
2017-11-24T08:36:55.275Z,11.48
2017-11-24T08:39:23.196Z,27.62
2017-11-24T08:41:51.881Z,20.58
2017-11-24T08:44:18.818Z,16.23
2017-11-24T08:46:46.492Z,10.05
2017-11-24T08:49:13.419Z,13.73
2017-11-24T08:51:41.125Z,15.90
2017-11-24T08:54:08.070Z,20.17
2017-11-24T08:56:35.005Z,16.52
2017-11-24T08:59:01.930Z,11.30
2017-11-24T09:01:28.878Z,12.30
2017-11-24T09:03:55.797Z,17.17
2017-11-24T09:06:25.422Z,13.52
2017-11-24T09:08:53.121Z,22.77
2017-11-24T09:11:20.058Z,20.23
2017-11-24T09:13:46.992Z,20.02
2017-11-24T09:16:13.967Z,12.50
2017-11-24T09:18:40.888Z,16.02
2017-11-24T09:21:07.897Z,17.98
2017-11-24T09:23:34.854Z,15.30
2017-11-24T09:26:01.865Z,12.30
2017-11-24T09:28:28.873Z,13.80
2017-11-24T09:30:55.973Z,14.65
2017-11-24T09:33:23.801Z,14.55
2017-11-24T09:35:50.872Z,16.00
2017-11-24T09:38:18.205Z,17.02
2017-11-24T09:40:45.140Z,10.68
2017-11-24T09:43:12.122Z,10.95
2017-11-24T09:45:39.044Z,16.50
2017-11-24T09:48:07.110Z,11.68
2017-11-24T09:50:34.078Z,13.40
2017-11-24T09:53:01.059Z,13.15
2017-11-24T09:55:28.031Z,18.98
2017-11-24T09:57:56.006Z,20.33
2017-11-24T10:00:22.982Z,10.07
2017-11-24T10:02:52.569Z,12.43
2017-11-24T10:05:21.295Z,11.90
2017-11-24T10:07:49.537Z,11.38
2017-11-24T10:10:17.264Z,13.68
2017-11-24T10:12:45.288Z,17.83
2017-11-24T10:15:12.213Z,13.02
2017-11-24T10:17:39.142Z,13.90
2017-11-24T10:20:06.056Z,10.90
2017-11-24T10:22:33.976Z,8.60
2017-11-24T10:25:00.885Z,9.07
2017-11-24T10:27:28.822Z,11.93
2017-11-24T10:29:56.822Z,18.05
2017-11-24T10:32:23.751Z,15.27
2017-11-24T10:34:51.546Z,11.88
2017-11-24T10:37:18.621Z,13.68
2017-11-24T10:39:45.539Z,13.23
2017-11-24T10:42:12.466Z,13.82
2017-11-24T10:44:39.394Z,12.50
2017-11-24T10:47:07.305Z,16.83
2017-11-24T10:49:34.232Z,10.38
2017-11-24T10:52:01.184Z,13.88
2017-11-24T10:54:28.083Z,15.73
2017-11-24T10:56:55.793Z,13.95
2017-11-24T10:59:22.705Z,13.95
2017-11-24T11:01:50.554Z,14.40
2017-11-24T11:04:20.166Z,8.57
2017-11-24T11:06:47.911Z,9.30
2017-11-24T11:09:15.807Z,8.98
2017-11-24T11:11:42.747Z,11.05
2017-11-24T11:14:10.452Z,12.07
2017-11-24T11:16:37.390Z,12.07
2017-11-24T11:19:04.303Z,8.48
2017-11-24T11:21:31.236Z,6.37
2017-11-24T11:23:58.923Z,9.48
2017-11-24T11:26:26.813Z,10.85
2017-11-24T11:28:53.717Z,9.35
2017-11-24T11:31:20.629Z,12.43
2017-11-24T11:33:47.572Z,11.18
2017-11-24T11:36:15.416Z,10.27
2017-11-24T11:38:42.385Z,9.85
2017-11-24T11:41:10.277Z,18.08
2017-11-24T11:43:37.977Z,9.60
2017-11-24T11:46:04.885Z,14.75
2017-11-24T11:48:33.600Z,17.30
2017-11-24T11:51:00.527Z,10.63
2017-11-24T11:53:27.456Z,16.45
2017-11-24T11:55:54.373Z,9.50
2017-11-24T11:58:21.311Z,12.35
2017-11-24T12:00:48.234Z,14.38
2017-11-24T12:03:15.164Z,18.17
2017-11-24T12:05:47.431Z,18.15
2017-11-24T12:08:16.366Z,17.73
2017-11-24T12:10:44.254Z,11.63
2017-11-24T12:13:12.870Z,19.83
2017-11-24T12:15:39.805Z,16.33
2017-11-24T12:18:06.758Z,12.10
2017-11-24T12:20:35.545Z,20.27
2017-11-24T12:23:02.482Z,14.65
2017-11-24T12:25:30.334Z,15.80
2017-11-24T12:27:58.036Z,21.55
2017-11-24T12:30:24.950Z,12.55
2017-11-24T12:32:51.872Z,13.23
2017-11-24T12:35:18.790Z,11.77
2017-11-24T12:37:47.472Z,14.73
2017-11-24T12:40:15.381Z,26.27
2017-11-24T12:42:45.010Z,15.57
2017-11-24T12:45:12.132Z,26.75
2017-11-24T12:47:39.826Z,18.37
2017-11-24T12:50:06.779Z,23.15
2017-11-24T12:52:33.712Z,11.63
2017-11-24T12:55:01.543Z,17.05
2017-11-24T12:57:29.440Z,8.13
2017-11-24T12:59:56.345Z,8.07
2017-11-24T13:02:23.262Z,8.18
2017-11-24T13:04:50.174Z,5.90
2017-11-24T13:07:17.102Z,5.97
2017-11-24T13:09:44.986Z,8.32
2017-11-24T13:12:13.896Z,5.35
2017-11-24T13:14:40.814Z,8.30
2017-11-24T13:17:07.775Z,7.70
2017-11-24T13:19:34.703Z,5.20
2017-11-24T13:22:01.627Z,3.70
2017-11-24T13:24:29.312Z,3.10
2017-11-24T13:26:56.246Z,4.35
2017-11-24T13:29:23.927Z,3.80
2017-11-24T13:31:50.872Z,6.85
2017-11-24T13:34:17.803Z,8.10
2017-11-24T13:36:44.742Z,11.30
2017-11-24T13:39:12.556Z,9.18
2017-11-24T13:41:40.386Z,4.60
2017-11-24T13:44:07.283Z,6.03
2017-11-24T13:46:34.263Z,7.95
2017-11-24T13:49:03.151Z,10.40
2017-11-24T13:51:31.831Z,4.95
2017-11-24T13:54:00.449Z,11.98
2017-11-24T13:56:27.374Z,6.30
2017-11-24T13:58:55.240Z,11.82
2017-11-24T14:01:25.487Z,9.15
2017-11-24T14:03:52.400Z,6.60
2017-11-24T14:06:20.292Z,7.22
2017-11-24T14:08:47.214Z,9.98
2017-11-24T14:11:14.290Z,20.30
2017-11-24T14:13:41.220Z,10.27
2017-11-24T14:16:10.069Z,9.88
2017-11-24T14:18:41.614Z,13.77
2017-11-24T14:21:10.246Z,12.93
2017-11-24T14:23:41.761Z,9.70
2017-11-24T14:26:09.458Z,11.73
2017-11-24T14:28:36.367Z,5.05
2017-11-24T14:31:03.343Z,7.65
2017-11-24T14:33:32.207Z,7.62
2017-11-24T14:36:01.917Z,5.80
2017-11-24T14:38:28.834Z,5.32
2017-11-24T14:40:58.794Z,7.53
2017-11-24T14:43:25.710Z,5.87
2017-11-24T14:45:52.643Z,5.15
2017-11-24T14:48:27.314Z,3.28
2017-11-24T14:50:54.258Z,3.87
2017-11-24T14:53:21.170Z,2.50
2017-11-24T14:55:48.884Z,3.28
2017-11-24T14:58:15.865Z,5.47
2017-11-24T15:00:43.761Z,4.50
2017-11-24T15:03:10.679Z,2.12
2017-11-24T15:05:39.605Z,3.50
2017-11-24T15:08:08.457Z,5.90
2017-11-24T15:10:35.383Z,4.62
2017-11-24T15:13:05.949Z,6.65
2017-11-24T15:15:33.654Z,5.10
2017-11-24T15:18:03.957Z,4.28
2017-11-24T15:20:30.914Z,2.62
2017-11-24T15:22:57.823Z,5.70
2017-11-24T15:25:26.527Z,5.75
2017-11-24T15:27:54.349Z,6.47
2017-11-24T15:30:21.290Z,8.25
2017-11-24T15:32:49.203Z,5.87
2017-11-24T15:35:16.882Z,5.45
2017-11-24T15:37:43.776Z,7.45
2017-11-24T15:40:10.690Z,3.58
2017-11-24T15:42:37.599Z,2.62
2017-11-24T15:45:07.303Z,4.72
2017-11-24T15:47:37.018Z,5.80
2017-11-24T15:50:04.089Z,3.80
2017-11-24T15:52:31.001Z,4.97
2017-11-24T15:54:58.701Z,6.47
2017-11-24T15:57:26.646Z,7.65
2017-11-24T15:59:53.635Z,9.73
2017-11-24T16:02:20.563Z,3.78
2017-11-24T16:04:47.492Z,4.18
2017-11-24T16:07:14.495Z,3.42
2017-11-24T16:09:42.482Z,3.58
2017-11-24T16:12:10.157Z,6.35
2017-11-24T16:14:38.432Z,3.62
2017-11-24T16:17:05.344Z,3.45
2017-11-24T16:19:32.281Z,6.05
2017-11-24T16:22:05.227Z,8.88
2017-11-24T16:24:32.166Z,7.68
2017-11-24T16:26:59.084Z,6.37
2017-11-24T16:29:30.233Z,5.72
2017-11-24T16:31:57.914Z,5.37
2017-11-24T16:34:24.879Z,7.60
2017-11-24T16:36:52.795Z,4.55
2017-11-24T16:39:21.481Z,6.40
2017-11-24T16:41:49.150Z,5.57
2017-11-24T16:44:16.080Z,5.72
2017-11-24T16:46:43.942Z,11.85
2017-11-24T16:49:11.659Z,10.13
2017-11-24T16:51:38.571Z,10.70
2017-11-24T16:54:05.518Z,13.23
2017-11-24T16:56:32.442Z,12.13
2017-11-24T16:58:59.372Z,9.60
2017-11-24T17:01:26.306Z,13.30
2017-11-24T17:03:53.718Z,14.13
2017-11-24T17:06:20.638Z,11.40
2017-11-24T17:08:48.328Z,12.13
2017-11-24T17:11:15.239Z,14.65
2017-11-24T17:13:43.937Z,10.43
2017-11-24T17:16:11.596Z,8.35
2017-11-24T17:18:38.537Z,7.40
2017-11-24T17:21:06.236Z,5.35
2017-11-24T17:23:34.174Z,4.87
2017-11-24T17:26:01.086Z,6.25
2017-11-24T17:28:28.005Z,11.35
2017-11-24T17:30:54.930Z,9.02
2017-11-24T17:33:21.840Z,9.57
2017-11-24T17:35:49.722Z,10.05
2017-11-24T17:38:16.662Z,9.95
2017-11-24T17:40:43.595Z,10.77
2017-11-24T17:43:10.682Z,11.35
2017-11-24T17:45:37.590Z,9.48
2017-11-24T17:48:05.285Z,11.02
2017-11-24T17:50:32.200Z,9.38
2017-11-24T17:52:59.909Z,12.02
2017-11-24T17:55:26.861Z,12.25
2017-11-24T17:57:54.800Z,13.38
2017-11-24T18:00:22.669Z,13.13
2017-11-24T18:02:49.602Z,15.77
2017-11-24T18:05:20.931Z,23.55
2017-11-24T18:07:51.667Z,19.00
2017-11-24T18:10:18.581Z,14.20
2017-11-24T18:12:46.418Z,12.00
2017-11-24T18:15:13.323Z,14.27
2017-11-24T18:17:40.256Z,18.42
2017-11-24T18:20:11.400Z,16.10
2017-11-24T18:22:39.096Z,12.65
2017-11-24T18:25:06.013Z,11.93
2017-11-24T18:27:32.949Z,11.23
2017-11-24T18:29:59.888Z,14.90
2017-11-24T18:32:32.192Z,13.23
2017-11-24T18:34:59.125Z,13.57
2017-11-24T18:37:29.171Z,12.93
2017-11-24T18:39:56.064Z,12.25
2017-11-24T18:42:23.738Z,20.15
2017-11-24T18:44:50.676Z,14.20
2017-11-24T18:47:18.401Z,18.27
2017-11-24T18:49:47.273Z,17.27
2017-11-24T18:52:17.022Z,13.30
2017-11-24T18:54:43.924Z,9.75
2017-11-24T18:57:10.839Z,16.02
2017-11-24T18:59:38.512Z,11.63
2017-11-24T19:02:05.441Z,14.93
2017-11-24T19:04:32.499Z,11.10
2017-11-24T19:06:59.426Z,19.92
2017-11-24T19:09:28.293Z,12.68
2017-11-24T19:11:55.260Z,15.25
2017-11-24T19:14:22.944Z,14.57
2017-11-24T19:16:49.873Z,10.00
2017-11-24T19:19:22.343Z,9.80
2017-11-24T19:21:50.228Z,9.68
2017-11-24T19:24:17.158Z,11.85
2017-11-24T19:26:45.054Z,13.75
2017-11-24T19:29:12.952Z,13.40
2017-11-24T19:31:39.882Z,10.48
2017-11-24T19:34:06.812Z,17.80
2017-11-24T19:36:33.758Z,12.73
2017-11-24T19:39:02.414Z,12.30
2017-11-24T19:41:33.074Z,18.30
2017-11-24T19:44:00.902Z,17.83
2017-11-24T19:46:29.605Z,22.27
2017-11-24T19:49:03.206Z,19.33
2017-11-24T19:51:30.128Z,19.42
2017-11-24T19:53:57.805Z,16.83
2017-11-24T19:56:25.497Z,19.42
2017-11-24T19:58:53.340Z,19.80
2017-11-24T20:01:21.175Z,14.98
2017-11-24T20:03:48.095Z,27.35
2017-11-24T20:06:15.036Z,16.95
2017-11-24T20:08:41.962Z,15.55
2017-11-24T20:11:08.911Z,20.90
2017-11-24T20:13:35.815Z,22.77
2017-11-24T20:16:03.540Z,14.13
2017-11-24T20:18:30.454Z,18.60
2017-11-24T20:20:57.414Z,32.88
2017-11-24T20:23:24.324Z,21.98
2017-11-24T20:25:52.167Z,19.33
2017-11-24T20:28:19.086Z,21.05
2017-11-24T20:30:46.014Z,19.55
2017-11-24T20:33:12.934Z,27.98
2017-11-24T20:35:41.772Z,24.52
2017-11-24T20:38:09.690Z,21.90
2017-11-24T20:40:37.515Z,25.37
2017-11-24T20:43:05.201Z,21.15
2017-11-24T20:45:33.895Z,40.90
2017-11-24T20:48:00.975Z,30.15
2017-11-24T20:50:27.898Z,27.55
2017-11-24T20:52:54.816Z,23.98
2017-11-24T20:55:22.501Z,25.98
2017-11-24T20:57:50.256Z,30.00
2017-11-24T21:00:17.174Z,36.90
2017-11-24T21:02:45.283Z,20.42
2017-11-24T21:05:12.201Z,30.65
2017-11-24T21:07:39.891Z,24.85
2017-11-24T21:10:06.819Z,27.85
2017-11-24T21:12:33.754Z,26.67
2017-11-24T21:15:02.637Z,31.15
2017-11-24T21:17:30.360Z,24.33
2017-11-24T21:19:58.270Z,28.60
2017-11-24T21:22:26.963Z,25.50
2017-11-24T21:24:53.887Z,29.10
2017-11-24T21:27:20.842Z,26.90
2017-11-24T21:29:49.541Z,27.67
2017-11-24T21:32:17.427Z,25.90
2017-11-24T21:34:44.402Z,32.50
2017-11-24T21:37:16.939Z,24.75
2017-11-24T21:39:43.866Z,29.98
2017-11-24T21:42:12.579Z,24.17
2017-11-24T21:44:40.409Z,24.48
2017-11-24T21:47:09.109Z,32.17
2017-11-24T21:49:38.066Z,26.50
2017-11-24T21:52:06.087Z,27.45
2017-11-24T21:54:33.003Z,26.70
2017-11-24T21:57:00.700Z,23.77
2017-11-24T21:59:28.544Z,27.17
2017-11-24T22:01:55.476Z,29.42
2017-11-24T22:04:24.430Z,26.60
2017-11-24T22:06:51.368Z,26.25
2017-11-24T22:09:19.006Z,21.35
2017-11-24T22:11:45.972Z,24.40
2017-11-24T22:14:12.878Z,26.80
2017-11-24T22:16:40.737Z,21.15
2017-11-24T22:19:08.413Z,22.55
2017-11-24T22:21:35.354Z,19.95
2017-11-24T22:24:02.336Z,32.17
2017-11-24T22:26:29.277Z,22.73
2017-11-24T22:28:56.191Z,32.67
2017-11-24T22:31:23.217Z,23.08
2017-11-24T22:33:50.126Z,20.58
2017-11-24T22:36:17.073Z,21.95
2017-11-24T22:38:45.080Z,23.33
2017-11-24T22:41:13.774Z,18.45
2017-11-24T22:43:40.765Z,17.25
2017-11-24T22:46:07.941Z,24.75
2017-11-24T22:48:34.997Z,20.62
2017-11-24T22:51:01.982Z,17.80
2017-11-24T22:53:28.910Z,23.73
2017-11-24T22:55:55.879Z,21.98
2017-11-24T22:58:22.782Z,18.25
2017-11-24T23:00:50.488Z,21.55
2017-11-24T23:03:17.420Z,20.62
2017-11-24T23:05:45.358Z,27.05
2017-11-24T23:08:14.961Z,22.13
2017-11-24T23:10:42.660Z,26.05
2017-11-24T23:13:09.569Z,27.13
2017-11-24T23:15:37.352Z,24.15
2017-11-24T23:18:06.027Z,26.87
2017-11-24T23:20:33.898Z,28.27
2017-11-24T23:23:01.752Z,24.87
2017-11-24T23:25:29.466Z,24.70
2017-11-24T23:27:56.380Z,26.33
2017-11-24T23:30:24.217Z,23.73
2017-11-24T23:32:51.139Z,27.73
2017-11-24T23:35:18.083Z,28.98
2017-11-24T23:37:45.008Z,29.65
2017-11-24T23:40:11.938Z,31.05
2017-11-24T23:42:43.477Z,25.12
2017-11-24T23:45:11.314Z,23.10
2017-11-24T23:47:38.988Z,23.30
2017-11-24T23:50:05.915Z,22.23
2017-11-24T23:52:33.610Z,30.45
2017-11-24T23:55:00.529Z,31.30
2017-11-24T23:57:28.207Z,28.73
2017-11-24T23:59:55.150Z,25.70
